createdAt,value
2019-05-11T00:00:38.163Z,1007.13
2019-05-11T00:01:38.159Z,1007.15
2019-05-11T00:02:38.151Z,1007.12
2019-05-11T00:03:38.136Z,1007.11
2019-05-11T00:04:38.123Z,1007.09
2019-05-11T00:05:38.109Z,1007.08
2019-05-11T00:06:38.107Z,1007.07
2019-05-11T00:07:38.099Z,1007.11
2019-05-11T00:08:38.087Z,1007.03
2019-05-11T00:09:38.066Z,1007.02
2019-05-11T00:10:38.055Z,1007.01
2019-05-11T00:11:38.043Z,1007.05
2019-05-11T00:12:38.033Z,1007.07
2019-05-11T00:13:38.051Z,1007.08
2019-05-11T00:14:38.025Z,1007.06
2019-05-11T00:15:38.001Z,1007.09
2019-05-11T00:16:37.991Z,1007.04
2019-05-11T00:17:37.980Z,1007.08
2019-05-11T00:18:37.969Z,1007.09
2019-05-11T00:19:37.970Z,1007.08
2019-05-11T00:20:37.958Z,1007.05
2019-05-11T00:21:37.937Z,1007.03
2019-05-11T00:22:37.929Z,1007.03
2019-05-11T00:23:37.917Z,1007.00
2019-05-11T00:24:37.906Z,1007.02
2019-05-11T00:25:37.907Z,1007.02
2019-05-11T00:26:37.899Z,1007.05
2019-05-11T00:27:37.873Z,1007.01
2019-05-11T00:28:37.862Z,1007.03
2019-05-11T00:29:37.851Z,1007.07
2019-05-11T00:30:37.861Z,1007.06
2019-05-11T00:31:37.845Z,1007.09
2019-05-11T00:32:37.829Z,1007.11
2019-05-11T00:33:37.808Z,1007.11
2019-05-11T00:34:37.798Z,1007.15
2019-05-11T00:35:37.786Z,1007.21
2019-05-11T00:36:37.777Z,1007.23
2019-05-11T00:37:37.790Z,1007.26
2019-05-11T00:38:37.766Z,1007.24
2019-05-11T00:39:37.744Z,1007.29
2019-05-11T00:40:37.732Z,1007.24
2019-05-11T00:41:37.775Z,1007.25
2019-05-11T00:42:37.710Z,1007.18
2019-05-11T00:43:37.727Z,1007.12
2019-05-11T00:44:37.702Z,1007.11
2019-05-11T00:45:37.701Z,1007.08
2019-05-11T00:46:37.669Z,1007.05
2019-05-11T00:47:37.658Z,1007.05
2019-05-11T00:48:37.658Z,1007.01
2019-05-11T00:49:37.648Z,1007.02
2019-05-11T00:50:39.771Z,1006.98
2019-05-11T00:51:37.616Z,1006.94
2019-05-11T00:52:37.603Z,1006.98
2019-05-11T00:53:37.596Z,1007.00
2019-05-11T00:54:37.582Z,1007.00
2019-05-11T00:55:37.584Z,1007.04
2019-05-11T00:56:37.571Z,1007.05
2019-05-11T00:57:37.551Z,1007.03
2019-05-11T00:58:37.542Z,1007.05
2019-05-11T00:59:37.528Z,1007.07
2019-05-11T01:00:37.521Z,1007.03
2019-05-11T01:01:37.525Z,1007.06
2019-05-11T01:02:37.514Z,1007.02
2019-05-11T01:03:37.485Z,1007.02
2019-05-11T01:04:37.474Z,1006.95
2019-05-11T01:05:37.487Z,1006.96
2019-05-11T01:06:37.455Z,1007.01
2019-05-11T01:07:37.454Z,1006.97
2019-05-11T01:08:37.447Z,1006.97
2019-05-11T01:09:37.493Z,1006.94
2019-05-11T01:10:42.283Z,1006.95
2019-05-11T01:11:38.399Z,1006.89
2019-05-11T01:12:37.391Z,1006.94
2019-05-11T01:13:37.390Z,1006.94
2019-05-11T01:14:37.385Z,1006.92
2019-05-11T01:15:37.358Z,1006.89
2019-05-11T01:16:37.347Z,1006.88
2019-05-11T01:17:37.336Z,1006.90
2019-05-11T01:18:37.323Z,1006.92
2019-05-11T01:19:37.323Z,1006.88
2019-05-11T01:20:37.317Z,1006.94
2019-05-11T01:21:37.303Z,1006.91
2019-05-11T01:22:37.281Z,1006.89
2019-05-11T01:23:37.270Z,1006.91
2019-05-11T01:24:37.259Z,1006.96
2019-05-11T01:25:37.258Z,1006.93
2019-05-11T01:26:37.248Z,1006.97
2019-05-11T01:27:37.230Z,1006.99
2019-05-11T01:28:37.263Z,1006.96
2019-05-11T01:29:37.210Z,1006.93
2019-05-11T01:30:38.835Z,1006.96
2019-05-11T01:31:37.195Z,1006.89
2019-05-11T01:32:37.197Z,1006.89
2019-05-11T01:33:37.165Z,1006.90
2019-05-11T01:34:37.152Z,1006.88
2019-05-11T01:35:37.144Z,1006.88
2019-05-11T01:36:37.130Z,1006.89
2019-05-11T01:37:37.137Z,1006.88
2019-05-11T01:38:37.128Z,1006.83
2019-05-11T01:39:37.098Z,1006.89
2019-05-11T01:40:37.087Z,1006.90
2019-05-11T01:41:37.076Z,1006.90
2019-05-11T01:42:37.065Z,1007.01
2019-05-11T01:43:37.068Z,1006.89
2019-05-11T01:44:37.056Z,1006.97
2019-05-11T01:45:37.033Z,1007.00
2019-05-11T01:46:37.024Z,1006.97
2019-05-11T01:47:37.011Z,1006.92
2019-05-11T01:48:37.005Z,1006.92
2019-05-11T01:49:37.008Z,1006.94
2019-05-11T01:50:36.992Z,1006.93
2019-05-11T01:51:36.967Z,1006.93
2019-05-11T01:52:36.957Z,1006.95
2019-05-11T01:53:36.946Z,1006.95
2019-05-11T01:54:36.935Z,1007.00
2019-05-11T01:55:36.935Z,1007.00
2019-05-11T01:56:36.925Z,1006.99
2019-05-11T01:57:36.904Z,1006.98
2019-05-11T01:58:36.892Z,1006.96
2019-05-11T01:59:36.880Z,1006.97
2019-05-11T02:00:36.871Z,1006.98
2019-05-11T02:01:36.866Z,1006.98
2019-05-11T02:02:36.860Z,1007.00
2019-05-11T02:03:36.845Z,1006.95
2019-05-11T02:04:36.827Z,1006.94
2019-05-11T02:05:36.842Z,1006.96
2019-05-11T02:06:36.805Z,1006.95
2019-05-11T02:07:36.804Z,1006.94
2019-05-11T02:08:36.799Z,1006.99
2019-05-11T02:09:36.779Z,1006.95
2019-05-11T02:10:36.761Z,1006.97
2019-05-11T02:11:36.751Z,1006.97
2019-05-11T02:12:36.740Z,1006.98
2019-05-11T02:13:36.738Z,1006.95
2019-05-11T02:14:36.728Z,1006.92
2019-05-11T02:15:36.718Z,1006.99
2019-05-11T02:16:36.711Z,1006.95
2019-05-11T02:17:36.684Z,1006.92
2019-05-11T02:18:36.675Z,1006.92
2019-05-11T02:19:36.673Z,1006.92
2019-05-11T02:20:36.670Z,1006.95
2019-05-11T02:21:36.644Z,1006.93
2019-05-11T02:22:36.631Z,1006.92
2019-05-11T02:23:36.625Z,1006.92
2019-05-11T02:24:36.609Z,1006.88
2019-05-11T02:25:36.617Z,1006.96
2019-05-11T02:26:36.597Z,1006.97
2019-05-11T02:27:36.576Z,1006.94
2019-05-11T02:28:36.566Z,1006.99
2019-05-11T02:29:36.555Z,1007.03
2019-05-11T02:30:36.548Z,1007.04
2019-05-11T02:31:36.542Z,1007.08
2019-05-11T02:32:36.557Z,1006.99
2019-05-11T02:33:36.512Z,1007.08
2019-05-11T02:34:36.500Z,1007.01
2019-05-11T02:35:36.490Z,1007.03
2019-05-11T02:36:36.480Z,1006.96
2019-05-11T02:37:36.476Z,1006.92
2019-05-11T02:38:36.471Z,1006.94
2019-05-11T02:39:36.446Z,1006.92
2019-05-11T02:40:36.434Z,1006.87
2019-05-11T02:41:37.572Z,1006.88
2019-05-11T02:42:36.414Z,1006.85
2019-05-11T02:43:36.420Z,1006.84
2019-05-11T02:44:36.410Z,1006.94
2019-05-11T02:45:36.380Z,1006.90
2019-05-11T02:46:36.371Z,1006.90
2019-05-11T02:47:36.363Z,1006.93
2019-05-11T02:48:36.361Z,1006.93
2019-05-11T02:49:36.354Z,1006.95
2019-05-11T02:50:36.341Z,1006.95
2019-05-11T02:51:36.315Z,1006.95
2019-05-11T02:52:36.306Z,1006.95
2019-05-11T02:53:36.293Z,1006.93
2019-05-11T02:54:36.284Z,1006.92
2019-05-11T02:55:36.287Z,1006.86
2019-05-11T02:56:36.280Z,1006.88
2019-05-11T02:57:36.250Z,1006.84
2019-05-11T02:58:36.240Z,1006.85
2019-05-11T02:59:36.231Z,1006.84
2019-05-11T03:00:36.220Z,1006.89
2019-05-11T03:01:36.221Z,1006.94
2019-05-11T03:02:36.208Z,1006.98
2019-05-11T03:03:36.187Z,1007.00
2019-05-11T03:04:36.175Z,1006.99
2019-05-11T03:05:36.164Z,1006.95
2019-05-11T03:06:36.153Z,1006.91
2019-05-11T03:07:36.152Z,1006.89
2019-05-11T03:08:36.146Z,1006.90
2019-05-11T03:09:36.121Z,1006.83
2019-05-11T03:10:36.110Z,1006.85
2019-05-11T03:11:54.220Z,1006.86
2019-05-11T03:12:37.087Z,1006.87
2019-05-11T03:13:36.090Z,1006.82
2019-05-11T03:14:36.077Z,1006.86
2019-05-11T03:15:36.055Z,1006.80
2019-05-11T03:16:36.045Z,1006.80
2019-05-11T03:17:36.034Z,1006.80
2019-05-11T03:18:36.025Z,1006.87
2019-05-11T03:19:36.024Z,1006.82
2019-05-11T03:20:36.059Z,1006.85
2019-05-11T03:21:35.990Z,1006.86
2019-05-11T03:22:35.985Z,1006.81
2019-05-11T03:23:35.970Z,1006.84
2019-05-11T03:24:35.967Z,1006.91
2019-05-11T03:25:35.960Z,1006.97
2019-05-11T03:26:35.945Z,1006.95
2019-05-11T03:27:35.925Z,1006.95
2019-05-11T03:28:35.919Z,1006.97
2019-05-11T03:29:35.904Z,1006.92
2019-05-11T03:30:35.897Z,1006.91
2019-05-11T03:31:35.908Z,1006.95
2019-05-11T03:32:35.886Z,1006.95
2019-05-11T03:33:35.869Z,1006.99
2019-05-11T03:34:35.853Z,1006.94
2019-05-11T03:35:35.849Z,1006.97
2019-05-11T03:36:35.835Z,1007.01
2019-05-11T03:37:35.832Z,1007.00
2019-05-11T03:38:35.825Z,1007.02
2019-05-11T03:39:35.799Z,1007.06
2019-05-11T03:40:35.788Z,1007.12
2019-05-11T03:41:35.853Z,1007.12
2019-05-11T03:42:35.767Z,1007.11
2019-05-11T03:43:35.767Z,1007.13
2019-05-11T03:44:35.760Z,1007.13
2019-05-11T03:45:35.735Z,1007.11
2019-05-11T03:46:35.724Z,1007.09
2019-05-11T03:47:35.713Z,1007.12
2019-05-11T03:48:35.703Z,1007.16
2019-05-11T03:49:35.702Z,1007.08
2019-05-11T03:50:35.695Z,1007.16
2019-05-11T03:51:35.689Z,1007.16
2019-05-11T03:52:35.660Z,1007.16
2019-05-11T03:53:35.650Z,1007.16
2019-05-11T03:54:35.640Z,1007.14
2019-05-11T03:55:35.641Z,1007.15
2019-05-11T03:56:35.629Z,1007.12
2019-05-11T03:57:35.607Z,1007.16
2019-05-11T03:58:35.596Z,1007.19
2019-05-11T03:59:35.584Z,1007.17
2019-05-11T04:00:35.574Z,1007.26
2019-05-11T04:01:35.577Z,1007.25
2019-05-11T04:02:35.569Z,1007.30
2019-05-11T04:03:35.544Z,1007.29
2019-05-11T04:04:35.535Z,1007.29
2019-05-11T04:05:35.520Z,1007.27
2019-05-11T04:06:35.509Z,1007.30
2019-05-11T04:07:35.520Z,1007.23
2019-05-11T04:08:35.507Z,1007.22
2019-05-11T04:09:35.479Z,1007.22
2019-05-11T04:10:35.470Z,1007.24
2019-05-11T04:11:35.456Z,1007.18
2019-05-11T04:12:35.805Z,1007.20
2019-05-11T04:13:35.446Z,1007.15
2019-05-11T04:14:35.435Z,1007.19
2019-05-11T04:15:35.413Z,1007.17
2019-05-11T04:16:35.401Z,1007.12
2019-05-11T04:17:35.396Z,1007.14
2019-05-11T04:18:35.381Z,1007.18
2019-05-11T04:19:35.380Z,1007.15
2019-05-11T04:20:35.372Z,1007.15
2019-05-11T04:21:35.349Z,1007.15
2019-05-11T04:22:35.340Z,1007.10
2019-05-11T04:23:35.327Z,1007.07
2019-05-11T04:24:35.327Z,1007.09
2019-05-11T04:25:35.307Z,1007.06
2019-05-11T04:26:35.309Z,1007.08
2019-05-11T04:27:35.286Z,1007.04
2019-05-11T04:28:35.274Z,1007.07
2019-05-11T04:29:35.272Z,1007.06
2019-05-11T04:30:35.265Z,1007.08
2019-05-11T04:31:35.246Z,1007.06
2019-05-11T04:32:35.244Z,1007.06
2019-05-11T04:33:35.219Z,1007.12
2019-05-11T04:34:35.210Z,1007.06
2019-05-11T04:35:35.198Z,1007.07
2019-05-11T04:36:35.202Z,1007.04
2019-05-11T04:37:35.177Z,1007.10
2019-05-11T04:38:35.179Z,1007.01
2019-05-11T04:39:35.158Z,1007.04
2019-05-11T04:40:35.144Z,1006.99
2019-05-11T04:41:35.139Z,1007.08
2019-05-11T04:42:53.247Z,1007.05
2019-05-11T04:43:36.123Z,1007.02
2019-05-11T04:44:35.102Z,1007.01
2019-05-11T04:45:35.092Z,1007.00
2019-05-11T04:46:35.079Z,1007.05
2019-05-11T04:47:35.069Z,1007.08
2019-05-11T04:48:35.072Z,1007.08
2019-05-11T04:49:35.058Z,1007.06
2019-05-11T04:50:35.036Z,1007.05
2019-05-11T04:51:35.026Z,1007.06
2019-05-11T04:52:35.015Z,1007.04
2019-05-11T04:53:35.005Z,1007.03
2019-05-11T04:54:35.016Z,1007.02
2019-05-11T04:55:35.059Z,1007.01
2019-05-11T04:56:34.971Z,1007.07
2019-05-11T04:57:34.962Z,1007.05
2019-05-11T04:58:34.950Z,1007.11
2019-05-11T04:59:34.955Z,1007.13
2019-05-11T05:00:34.945Z,1007.13
2019-05-11T05:01:34.929Z,1007.13
2019-05-11T05:02:34.944Z,1007.12
2019-05-11T05:03:40.883Z,1007.14
2019-05-11T05:04:35.883Z,1007.17
2019-05-11T05:05:34.879Z,1007.14
2019-05-11T05:06:34.875Z,1007.14
2019-05-11T05:07:34.864Z,1007.14
2019-05-11T05:08:34.842Z,1007.21
2019-05-11T05:09:36.238Z,1007.18
2019-05-11T05:10:35.820Z,1007.25
2019-05-11T05:11:36.779Z,1007.19
2019-05-11T05:12:34.811Z,1007.19
2019-05-11T05:13:34.804Z,1007.19
2019-05-11T05:14:34.776Z,1007.14
2019-05-11T05:15:34.765Z,1007.20
2019-05-11T05:16:34.759Z,1007.15
2019-05-11T05:17:34.744Z,1007.15
2019-05-11T05:18:34.747Z,1007.19
2019-05-11T05:19:34.733Z,1007.19
2019-05-11T05:20:34.711Z,1007.21
2019-05-11T05:21:34.701Z,1007.19
2019-05-11T05:22:34.689Z,1007.21
2019-05-11T05:23:34.678Z,1007.17
2019-05-11T05:24:34.675Z,1007.15
2019-05-11T05:25:34.666Z,1007.17
2019-05-11T05:26:34.646Z,1007.17
2019-05-11T05:27:34.635Z,1007.17
2019-05-11T05:28:34.623Z,1007.19
2019-05-11T05:29:34.612Z,1007.22
2019-05-11T05:30:34.615Z,1007.16
2019-05-11T05:31:34.601Z,1007.18
2019-05-11T05:32:34.581Z,1007.21
2019-05-11T05:33:34.569Z,1007.23
2019-05-11T05:34:34.558Z,1007.25
2019-05-11T05:35:34.547Z,1007.27
2019-05-11T05:36:34.550Z,1007.20
2019-05-11T05:37:34.538Z,1007.25
2019-05-11T05:38:34.515Z,1007.25
2019-05-11T05:39:34.503Z,1007.29
2019-05-11T05:40:34.494Z,1007.30
2019-05-11T05:41:35.311Z,1007.25
2019-05-11T05:42:34.478Z,1007.26
2019-05-11T05:43:34.470Z,1007.29
2019-05-11T05:44:34.450Z,1007.28
2019-05-11T05:45:34.439Z,1007.27
2019-05-11T05:46:34.432Z,1007.31
2019-05-11T05:47:34.416Z,1007.28
2019-05-11T05:48:34.415Z,1007.33
2019-05-11T05:49:34.405Z,1007.27
2019-05-11T05:50:34.384Z,1007.31
2019-05-11T05:51:34.375Z,1007.37
2019-05-11T05:52:34.362Z,1007.42
2019-05-11T05:53:34.362Z,1007.37
2019-05-11T05:54:34.349Z,1007.45
2019-05-11T05:55:34.340Z,1007.38
2019-05-11T05:56:34.319Z,1007.45
2019-05-11T05:57:34.308Z,1007.46
2019-05-11T05:58:34.307Z,1007.46
2019-05-11T05:59:34.301Z,1007.46
2019-05-11T06:00:34.278Z,1007.49
2019-05-11T06:01:34.286Z,1007.47
2019-05-11T06:02:34.261Z,1007.51
2019-05-11T06:03:34.244Z,1007.56
2019-05-11T06:04:34.238Z,1007.56
2019-05-11T06:05:34.236Z,1007.52
2019-05-11T06:06:34.214Z,1007.53
2019-05-11T06:07:34.213Z,1007.56
2019-05-11T06:08:34.192Z,1007.54
2019-05-11T06:09:34.184Z,1007.53
2019-05-11T06:10:34.174Z,1007.53
2019-05-11T06:11:34.168Z,1007.56
2019-05-11T06:12:34.153Z,1007.59
2019-05-11T06:13:44.582Z,1007.61
2019-05-11T06:14:35.130Z,1007.63
2019-05-11T06:15:34.119Z,1007.63
2019-05-11T06:16:34.107Z,1007.68
2019-05-11T06:17:34.107Z,1007.66
2019-05-11T06:18:34.087Z,1007.65
2019-05-11T06:19:34.085Z,1007.68
2019-05-11T06:20:34.066Z,1007.64
2019-05-11T06:21:34.054Z,1007.68
2019-05-11T06:22:34.043Z,1007.69
2019-05-11T06:23:34.042Z,1007.68
2019-05-11T06:24:34.023Z,1007.66
2019-05-11T06:25:34.029Z,1007.65
2019-05-11T06:26:34.007Z,1007.69
2019-05-11T06:27:33.992Z,1007.70
2019-05-11T06:28:33.983Z,1007.71
2019-05-11T06:29:33.980Z,1007.73
2019-05-11T06:30:33.960Z,1007.68
2019-05-11T06:31:33.959Z,1007.62
2019-05-11T06:32:33.944Z,1007.71
2019-05-11T06:33:33.928Z,1007.67
2019-05-11T06:34:33.917Z,1007.69
2019-05-11T06:35:33.915Z,1007.72
2019-05-11T06:36:33.899Z,1007.76
2019-05-11T06:37:33.896Z,1007.69
2019-05-11T06:38:33.874Z,1007.73
2019-05-11T06:39:33.865Z,1007.77
2019-05-11T06:40:33.854Z,1007.77
2019-05-11T06:41:33.851Z,1007.81
2019-05-11T06:42:33.833Z,1007.78
2019-05-11T06:43:33.833Z,1007.79
2019-05-11T06:44:33.812Z,1007.80
2019-05-11T06:45:33.802Z,1007.79
2019-05-11T06:46:35.078Z,1007.82
2019-05-11T06:47:33.790Z,1007.90
2019-05-11T06:48:33.771Z,1007.89
2019-05-11T06:49:33.769Z,1007.87
2019-05-11T06:50:33.747Z,1007.87
2019-05-11T06:51:33.737Z,1007.85
2019-05-11T06:52:33.726Z,1007.88
2019-05-11T06:53:33.724Z,1007.87
2019-05-11T06:54:33.705Z,1007.85
2019-05-11T06:55:33.706Z,1007.90
2019-05-11T06:56:33.683Z,1007.95
2019-05-11T06:57:33.673Z,1007.94
2019-05-11T06:58:33.663Z,1007.92
2019-05-11T06:59:33.665Z,1007.96
2019-05-11T07:00:33.641Z,1007.93
2019-05-11T07:01:33.643Z,1007.93
2019-05-11T07:02:33.621Z,1007.93
2019-05-11T07:03:33.610Z,1007.94
2019-05-11T07:04:33.596Z,1007.92
2019-05-11T07:05:33.590Z,1007.92
2019-05-11T07:06:33.578Z,1007.94
2019-05-11T07:07:46.544Z,1007.92
2019-05-11T07:08:34.554Z,1007.96
2019-05-11T07:09:33.546Z,1007.97
2019-05-11T07:10:33.533Z,1007.97
2019-05-11T07:11:33.530Z,1007.98
2019-05-11T07:12:33.518Z,1007.93
2019-05-11T07:13:33.520Z,1007.97
2019-05-11T07:14:33.491Z,1008.01
2019-05-11T07:15:33.487Z,1008.04
2019-05-11T07:16:33.472Z,1008.05
2019-05-11T07:17:33.468Z,1008.02
2019-05-11T07:18:33.449Z,1008.03
2019-05-11T07:19:33.448Z,1008.03
2019-05-11T07:20:49.142Z,1008.07
2019-05-11T07:21:34.415Z,1008.04
2019-05-11T07:22:33.404Z,1008.07
2019-05-11T07:23:33.402Z,1008.05
2019-05-11T07:24:33.384Z,1008.07
2019-05-11T07:25:33.384Z,1008.05
2019-05-11T07:26:33.361Z,1008.06
2019-05-11T07:27:33.350Z,1008.15
2019-05-11T07:28:33.339Z,1008.16
2019-05-11T07:29:33.337Z,1008.22
2019-05-11T07:30:33.317Z,1008.20
2019-05-11T07:31:33.318Z,1008.25
2019-05-11T07:32:33.296Z,1008.28
2019-05-11T07:33:33.286Z,1008.29
2019-05-11T07:34:33.276Z,1008.34
2019-05-11T07:35:33.275Z,1008.29
2019-05-11T07:36:33.254Z,1008.34
2019-05-11T07:37:33.253Z,1008.34
2019-05-11T07:38:33.233Z,1008.35
2019-05-11T07:39:33.223Z,1008.36
2019-05-11T07:40:33.210Z,1008.41
2019-05-11T07:41:33.208Z,1008.40
2019-05-11T07:42:33.189Z,1008.32
2019-05-11T07:43:33.189Z,1008.33
2019-05-11T07:44:38.288Z,1008.35
2019-05-11T07:45:34.157Z,1008.36
2019-05-11T07:46:33.146Z,1008.31
2019-05-11T07:47:33.149Z,1008.32
2019-05-11T07:48:33.124Z,1008.22
2019-05-11T07:49:33.128Z,1008.33
2019-05-11T07:50:33.103Z,1008.32
2019-05-11T07:51:33.092Z,1008.28
2019-05-11T07:52:33.081Z,1008.34
2019-05-11T07:53:33.080Z,1008.37
2019-05-11T07:54:33.060Z,1008.43
2019-05-11T07:55:33.060Z,1008.44
2019-05-11T07:56:33.039Z,1008.42
2019-05-11T07:57:33.029Z,1008.42
2019-05-11T07:58:33.019Z,1008.44
2019-05-11T07:59:33.019Z,1008.39
2019-05-11T08:00:36.375Z,1008.46
2019-05-11T08:01:33.998Z,1008.40
2019-05-11T08:02:32.976Z,1008.49
2019-05-11T08:03:32.966Z,1008.41
2019-05-11T08:04:32.954Z,1008.39
2019-05-11T08:05:32.955Z,1008.45
2019-05-11T08:06:32.933Z,1008.55
2019-05-11T08:07:32.936Z,1008.49
2019-05-11T08:08:32.911Z,1008.48
2019-05-11T08:09:32.900Z,1008.52
2019-05-11T08:10:32.890Z,1008.52
2019-05-11T08:11:32.883Z,1008.50
2019-05-11T08:12:32.868Z,1008.53
2019-05-11T08:13:32.866Z,1008.57
2019-05-11T08:14:32.847Z,1008.49
2019-05-11T08:15:32.850Z,1008.49
2019-05-11T08:16:32.823Z,1008.53
2019-05-11T08:17:32.841Z,1008.59
2019-05-11T08:18:32.801Z,1008.56
2019-05-11T08:19:32.801Z,1008.57
2019-05-11T08:20:32.779Z,1008.59
2019-05-11T08:21:32.772Z,1008.53
2019-05-11T08:22:32.758Z,1008.55
2019-05-11T08:23:32.757Z,1008.59
2019-05-11T08:24:32.736Z,1008.68
2019-05-11T08:25:32.736Z,1008.77
2019-05-11T08:26:32.715Z,1008.78
2019-05-11T08:27:32.703Z,1008.76
2019-05-11T08:28:32.692Z,1008.73
2019-05-11T08:29:32.693Z,1008.73
2019-05-11T08:30:32.684Z,1008.73
2019-05-11T08:31:32.670Z,1008.75
2019-05-11T08:32:32.650Z,1008.73
2019-05-11T08:33:32.637Z,1008.78
2019-05-11T08:34:32.627Z,1008.71
2019-05-11T08:35:32.626Z,1008.80
2019-05-11T08:36:32.607Z,1008.79
2019-05-11T08:37:32.603Z,1008.84
2019-05-11T08:38:32.583Z,1008.87
2019-05-11T08:39:32.573Z,1008.85
2019-05-11T08:40:32.562Z,1008.88
2019-05-11T08:41:32.562Z,1008.88
2019-05-11T08:42:32.540Z,1008.86
2019-05-11T08:43:32.541Z,1008.90
2019-05-11T08:44:32.518Z,1008.89
2019-05-11T08:45:32.507Z,1008.91
2019-05-11T08:46:32.495Z,1008.89
2019-05-11T08:47:32.501Z,1008.94
2019-05-11T08:48:32.476Z,1008.93
2019-05-11T08:49:32.474Z,1008.91
2019-05-11T08:50:32.453Z,1008.99
2019-05-11T08:51:32.441Z,1008.95
2019-05-11T08:52:32.431Z,1008.95
2019-05-11T08:53:32.429Z,1008.97
2019-05-11T08:54:32.409Z,1008.99
2019-05-11T08:55:32.412Z,1009.13
2019-05-11T08:56:32.388Z,1008.99
2019-05-11T08:57:32.376Z,1008.97
2019-05-11T08:58:32.365Z,1009.08
2019-05-11T08:59:32.365Z,1008.99
2019-05-11T09:00:32.344Z,1009.04
2019-05-11T09:01:32.344Z,1009.06
2019-05-11T09:02:32.322Z,1009.04
2019-05-11T09:03:32.311Z,1009.06
2019-05-11T09:04:32.302Z,1009.08
2019-05-11T09:05:32.306Z,1009.06
2019-05-11T09:06:32.280Z,1009.09
2019-05-11T09:07:32.287Z,1009.12
2019-05-11T09:08:32.304Z,1009.08
2019-05-11T09:09:32.246Z,1009.13
2019-05-11T09:10:32.236Z,1009.10
2019-05-11T09:11:32.242Z,1009.09
2019-05-11T09:12:32.214Z,1009.25
2019-05-11T09:13:32.216Z,1009.15
2019-05-11T09:14:32.195Z,1009.16
2019-05-11T09:15:37.264Z,1009.11
2019-05-11T09:16:33.170Z,1009.19
2019-05-11T09:17:32.180Z,1009.10
2019-05-11T09:18:32.150Z,1009.16
2019-05-11T09:19:32.156Z,1009.24
2019-05-11T09:20:32.131Z,1009.37
2019-05-11T09:21:32.118Z,1009.27
2019-05-11T09:22:32.108Z,1009.27
2019-05-11T09:23:37.391Z,1009.27
2019-05-11T09:24:33.096Z,1009.32
2019-05-11T09:25:32.080Z,1009.30
2019-05-11T09:26:32.070Z,1009.26
2019-05-11T09:27:32.055Z,1009.43
2019-05-11T09:28:32.044Z,1009.40
2019-05-11T09:29:32.045Z,1009.40
2019-05-11T09:30:32.037Z,1009.48
2019-05-11T09:31:32.012Z,1009.49
2019-05-11T09:32:32.002Z,1009.45
2019-05-11T09:33:31.991Z,1009.50
2019-05-11T09:34:31.983Z,1009.41
2019-05-11T09:35:46.420Z,1009.39
2019-05-11T09:36:32.994Z,1009.44
2019-05-11T09:37:31.948Z,1009.43
2019-05-11T09:38:31.938Z,1009.51
2019-05-11T09:39:31.929Z,1009.55
2019-05-11T09:40:31.917Z,1009.56
2019-05-11T09:41:31.915Z,1009.67
2019-05-11T09:42:31.906Z,1009.60
2019-05-11T09:43:31.885Z,1009.60
2019-05-11T09:44:31.875Z,1009.58
2019-05-11T09:45:44.625Z,1009.57
2019-05-11T09:46:32.974Z,1009.68
2019-05-11T09:47:31.855Z,1009.67
2019-05-11T09:48:31.947Z,1009.63
2019-05-11T09:49:43.806Z,1009.63
2019-05-11T09:50:32.815Z,1009.69
2019-05-11T09:51:31.810Z,1009.80
2019-05-11T09:52:32.583Z,1009.75
2019-05-11T09:53:31.792Z,1009.74
2019-05-11T09:54:31.777Z,1009.74
2019-05-11T09:55:31.757Z,1009.88
2019-05-11T09:56:31.746Z,1009.80
2019-05-11T09:57:31.736Z,1009.83
2019-05-11T09:58:31.725Z,1009.75
2019-05-11T09:59:31.725Z,1009.88
2019-05-11T10:00:31.718Z,1009.79
2019-05-11T10:01:31.693Z,1009.80
2019-05-11T10:02:31.681Z,1009.86
2019-05-11T10:03:31.672Z,1009.92
2019-05-11T10:04:31.660Z,1009.99
2019-05-11T10:05:31.665Z,1009.85
2019-05-11T10:06:31.649Z,1009.87
2019-05-11T10:07:32.611Z,1009.92
2019-05-11T10:08:31.622Z,1009.99
2019-05-11T10:09:31.606Z,1010.09
2019-05-11T10:10:31.595Z,1010.04
2019-05-11T10:11:31.598Z,1010.02
2019-05-11T10:12:31.584Z,1010.02
2019-05-11T10:13:31.563Z,1010.09
2019-05-11T10:14:31.553Z,1010.12
2019-05-11T10:15:31.546Z,1010.05
2019-05-11T10:16:31.541Z,1010.15
2019-05-11T10:17:31.552Z,1010.17
2019-05-11T10:18:31.526Z,1010.15
2019-05-11T10:19:31.502Z,1010.19
2019-05-11T10:20:31.488Z,1010.16
2019-05-11T10:21:31.477Z,1010.18
2019-05-11T10:22:31.466Z,1010.34
2019-05-11T10:23:31.479Z,1010.20
2019-05-11T10:24:31.455Z,1010.22
2019-05-11T10:25:31.440Z,1010.21
2019-05-11T10:26:31.435Z,1010.37
2019-05-11T10:27:31.413Z,1010.13
2019-05-11T10:28:31.402Z,1010.24
2019-05-11T10:29:33.928Z,1010.21
2019-05-11T10:30:31.391Z,1010.33
2019-05-11T10:31:31.367Z,1010.28
2019-05-11T10:32:31.356Z,1010.21
2019-05-11T10:33:31.348Z,1010.34
2019-05-11T10:34:31.349Z,1010.39
2019-05-11T10:35:31.349Z,1010.33
2019-05-11T10:36:31.330Z,1010.40
2019-05-11T10:37:31.315Z,1010.44
2019-05-11T10:38:31.292Z,1010.41
2019-05-11T10:39:31.286Z,1010.55
2019-05-11T10:40:31.269Z,1010.49
2019-05-11T10:41:31.258Z,1010.43
2019-05-11T10:42:31.270Z,1010.45
2019-05-11T10:43:31.237Z,1010.51
2019-05-11T10:44:31.226Z,1010.52
2019-05-11T10:45:31.217Z,1010.51
2019-05-11T10:46:31.205Z,1010.52
2019-05-11T10:47:31.194Z,1010.47
2019-05-11T10:48:31.203Z,1010.50
2019-05-11T10:49:31.175Z,1010.52
2019-05-11T10:50:31.163Z,1010.50
2019-05-11T10:51:31.151Z,1010.54
2019-05-11T10:52:31.149Z,1010.53
2019-05-11T10:53:31.133Z,1010.53
2019-05-11T10:54:31.184Z,1010.59
2019-05-11T10:55:31.107Z,1010.61
2019-05-11T10:56:31.099Z,1010.64
2019-05-11T10:57:31.087Z,1010.64
2019-05-11T10:58:31.075Z,1010.66
2019-05-11T10:59:31.065Z,1010.58
2019-05-11T11:00:31.074Z,1010.61
2019-05-11T11:01:31.043Z,1010.64
2019-05-11T11:02:31.038Z,1010.61
2019-05-11T11:03:31.020Z,1010.72
2019-05-11T11:04:31.009Z,1010.61
2019-05-11T11:05:30.998Z,1010.55
2019-05-11T11:06:31.012Z,1010.60
2019-05-11T11:07:30.988Z,1010.55
2019-05-11T11:08:30.967Z,1010.60
2019-05-11T11:09:30.955Z,1010.56
2019-05-11T11:10:30.945Z,1010.55
2019-05-11T11:11:30.935Z,1010.52
2019-05-11T11:12:30.961Z,1010.56
2019-05-11T11:13:30.913Z,1010.50
2019-05-11T11:14:30.904Z,1010.57
2019-05-11T11:15:30.892Z,1010.49
2019-05-11T11:16:39.351Z,1010.47
2019-05-11T11:17:31.882Z,1010.54
2019-05-11T11:18:30.870Z,1010.69
2019-05-11T11:19:30.846Z,1010.60
2019-05-11T11:20:30.837Z,1010.64
2019-05-11T11:21:30.829Z,1010.61
2019-05-11T11:22:39.399Z,1010.58
2019-05-11T11:23:31.819Z,1010.65
2019-05-11T11:24:30.825Z,1010.60
2019-05-11T11:25:30.790Z,1010.56
2019-05-11T11:26:30.774Z,1010.63
2019-05-11T11:27:30.763Z,1010.62
2019-05-11T11:28:30.758Z,1010.61
2019-05-11T11:29:30.758Z,1010.62
2019-05-11T11:30:30.745Z,1010.67
2019-05-11T11:31:30.720Z,1010.69
2019-05-11T11:32:30.708Z,1010.67
2019-05-11T11:33:30.699Z,1010.63
2019-05-11T11:34:30.709Z,1010.63
2019-05-11T11:35:30.687Z,1010.69
2019-05-11T11:36:30.694Z,1010.70
2019-05-11T11:37:30.657Z,1010.74
2019-05-11T11:38:30.645Z,1010.74
2019-05-11T11:39:30.634Z,1010.72
2019-05-11T11:40:30.627Z,1010.69
2019-05-11T11:41:30.630Z,1010.77
2019-05-11T11:42:30.613Z,1010.76
2019-05-11T11:43:30.591Z,1010.68
2019-05-11T11:44:30.579Z,1010.67
2019-05-11T11:45:30.579Z,1010.62
2019-05-11T11:46:30.557Z,1010.66
2019-05-11T11:47:30.556Z,1010.71
2019-05-11T11:48:30.546Z,1010.79
2019-05-11T11:49:30.528Z,1010.67
2019-05-11T11:50:30.513Z,1010.79
2019-05-11T11:51:30.504Z,1010.77
2019-05-11T11:52:30.492Z,1010.76
2019-05-11T11:53:30.501Z,1010.89
2019-05-11T11:54:30.483Z,1010.83
2019-05-11T11:55:30.465Z,1010.80
2019-05-11T11:56:30.450Z,1010.79
2019-05-11T11:57:30.439Z,1010.84
2019-05-11T11:58:30.428Z,1010.75
2019-05-11T11:59:30.429Z,1010.81
2019-05-11T12:00:30.415Z,1010.88
2019-05-11T12:01:30.399Z,1010.84
2019-05-11T12:02:30.386Z,1010.80
2019-05-11T12:03:30.376Z,1010.80
2019-05-11T12:04:30.366Z,1010.80
2019-05-11T12:05:30.365Z,1010.79